createdAt,value
2018-08-11T00:00:19.337Z,17.76
2018-08-11T00:03:19.270Z,17.69
2018-08-11T00:06:19.262Z,17.87
2018-08-11T00:09:19.224Z,18.03
2018-08-11T00:12:19.196Z,18.13
2018-08-11T00:15:19.136Z,18.12
2018-08-11T00:18:19.141Z,18.00
2018-08-11T00:21:19.137Z,18.00
2018-08-11T00:24:19.066Z,18.06
2018-08-11T00:27:18.999Z,18.09
2018-08-11T00:30:19.004Z,18.19
2018-08-11T00:33:18.956Z,18.10
2018-08-11T00:36:18.993Z,17.99
2018-08-11T00:39:18.864Z,17.67
2018-08-11T00:42:18.875Z,17.33
2018-08-11T00:45:18.815Z,16.98
2018-08-11T00:48:18.893Z,16.96
2018-08-11T00:51:18.737Z,16.71
2018-08-11T00:54:18.741Z,16.14
2018-08-11T00:57:18.806Z,15.48
2018-08-11T01:00:18.661Z,14.72
2018-08-11T01:03:18.599Z,14.20
2018-08-11T01:06:18.597Z,13.91
2018-08-11T01:09:18.535Z,13.79
2018-08-11T01:12:18.507Z,13.80
2018-08-11T01:15:18.570Z,13.63
2018-08-11T01:18:18.459Z,13.56
2018-08-11T01:21:18.398Z,13.67
2018-08-11T01:24:18.397Z,13.70
2018-08-11T01:27:18.336Z,13.71
2018-08-11T01:30:18.325Z,13.73
2018-08-11T01:33:18.291Z,13.76
2018-08-11T01:36:18.243Z,13.88
2018-08-11T01:39:18.213Z,13.81
2018-08-11T01:42:18.246Z,13.84
2018-08-11T01:45:18.124Z,13.96
2018-08-11T01:48:18.118Z,13.94
2018-08-11T01:51:18.056Z,13.96
2018-08-11T01:54:18.048Z,13.95
2018-08-11T01:57:18.001Z,13.84
2018-08-11T02:00:17.969Z,13.92
2018-08-11T02:03:17.962Z,13.95
2018-08-11T02:06:17.922Z,13.99
2018-08-11T02:09:17.899Z,14.09
2018-08-11T02:12:17.839Z,14.19
2018-08-11T02:15:17.786Z,14.12
2018-08-11T02:18:17.769Z,14.19
2018-08-11T02:21:17.721Z,14.19
2018-08-11T02:24:17.743Z,14.24
2018-08-11T02:27:17.652Z,14.19
2018-08-11T02:30:17.644Z,14.09
2018-08-11T02:33:17.619Z,13.98
2018-08-11T02:36:17.569Z,13.89
2018-08-11T02:39:17.532Z,13.76
2018-08-11T02:42:17.534Z,13.63
2018-08-11T02:45:17.463Z,13.61
2018-08-11T02:48:17.438Z,13.59
2018-08-11T02:51:17.388Z,13.52
2018-08-11T02:54:17.383Z,13.62
2018-08-11T02:57:17.316Z,13.58
2018-08-11T03:00:17.321Z,13.59
2018-08-11T03:03:17.264Z,13.49
2018-08-11T03:06:17.233Z,13.63
2018-08-11T03:09:17.176Z,13.63
2018-08-11T03:12:17.183Z,13.63
2018-08-11T03:15:17.120Z,13.84
2018-08-11T03:18:17.123Z,13.96
2018-08-11T03:21:17.055Z,14.17
2018-08-11T03:24:17.031Z,14.28
2018-08-11T03:27:16.979Z,14.43
2018-08-11T03:30:16.989Z,14.39
2018-08-11T03:33:16.916Z,14.38
2018-08-11T03:36:16.910Z,14.32
2018-08-11T03:39:16.841Z,14.19
2018-08-11T03:42:17.463Z,14.29
2018-08-11T03:45:16.780Z,14.31
2018-08-11T03:48:16.775Z,14.35
2018-08-11T03:51:17.539Z,14.37
2018-08-11T03:54:16.688Z,14.46
2018-08-11T03:57:16.676Z,14.49
2018-08-11T04:00:16.626Z,14.46
2018-08-11T04:03:16.587Z,14.47
2018-08-11T04:06:16.554Z,14.39
2018-08-11T04:09:16.511Z,14.32
2018-08-11T04:12:16.504Z,14.32
2018-08-11T04:15:16.455Z,14.29
2018-08-11T04:18:16.432Z,14.34
2018-08-11T04:21:16.417Z,14.32
2018-08-11T04:24:16.359Z,14.21
2018-08-11T04:27:16.314Z,14.31
2018-08-11T04:30:16.284Z,14.31
2018-08-11T04:33:16.261Z,14.32
2018-08-11T04:36:16.246Z,14.38
2018-08-11T04:39:16.218Z,14.31
2018-08-11T04:42:16.162Z,14.34
2018-08-11T04:45:16.124Z,14.78
2018-08-11T04:48:16.078Z,15.35
2018-08-11T04:51:16.040Z,15.68
2018-08-11T04:54:16.035Z,15.78
2018-08-11T04:57:16.015Z,16.03
2018-08-11T05:00:15.948Z,16.41
2018-08-11T05:03:15.935Z,16.42
2018-08-11T05:06:15.891Z,16.74
2018-08-11T05:09:15.837Z,16.85
2018-08-11T05:12:15.869Z,17.04
2018-08-11T05:15:15.770Z,17.00
2018-08-11T05:18:15.761Z,16.81
2018-08-11T05:21:15.721Z,17.33
2018-08-11T05:24:15.717Z,16.22
2018-08-11T05:27:15.634Z,17.08
2018-08-11T05:30:15.640Z,16.55
2018-08-11T05:33:15.732Z,16.50
2018-08-11T05:36:15.560Z,17.57
2018-08-11T05:39:15.509Z,17.55
2018-08-11T05:42:15.486Z,17.99
2018-08-11T05:45:15.442Z,17.14
2018-08-11T05:48:15.424Z,17.67
2018-08-11T05:51:15.367Z,16.89
2018-08-11T05:54:15.386Z,18.06
2018-08-11T05:57:15.344Z,16.50
2018-08-11T06:00:15.322Z,16.06
2018-08-11T06:03:15.244Z,16.74
2018-08-11T06:06:15.233Z,17.64
2018-08-11T06:09:15.194Z,18.70
2018-08-11T06:12:15.160Z,19.68
2018-08-11T06:15:15.116Z,19.46
2018-08-11T06:18:15.093Z,19.40
2018-08-11T06:21:15.139Z,19.63
2018-08-11T06:24:15.020Z,19.23
2018-08-11T06:27:14.982Z,19.68
2018-08-11T06:30:14.955Z,20.13
2018-08-11T06:33:14.910Z,20.15
2018-08-11T06:36:14.921Z,19.97
2018-08-11T06:39:14.865Z,20.18
2018-08-11T06:42:14.848Z,20.25
2018-08-11T06:45:14.791Z,20.56
2018-08-11T06:48:14.754Z,20.95
2018-08-11T06:51:14.734Z,20.38
2018-08-11T06:54:14.729Z,20.76
2018-08-11T06:57:14.665Z,20.71
2018-08-11T07:00:14.695Z,20.96
2018-08-11T07:03:14.584Z,22.10
2018-08-11T07:06:15.603Z,21.17
2018-08-11T07:09:14.518Z,21.14
2018-08-11T07:12:14.510Z,21.16
2018-08-11T07:15:14.518Z,20.68
2018-08-11T07:18:14.455Z,22.06
2018-08-11T07:21:14.441Z,21.66
2018-08-11T07:24:14.401Z,21.71
2018-08-11T07:27:14.468Z,22.38
2018-08-11T07:30:14.346Z,22.49
2018-08-11T07:33:14.258Z,22.04
2018-08-11T07:36:14.419Z,22.35
2018-08-11T07:39:14.201Z,22.82
2018-08-11T07:42:14.195Z,22.28
2018-08-11T07:45:14.935Z,22.14
2018-08-11T07:48:14.161Z,22.80
2018-08-11T07:51:14.121Z,22.87
2018-08-11T07:54:14.091Z,22.41
2018-08-11T07:57:14.003Z,23.98
2018-08-11T08:00:13.993Z,21.94
2018-08-11T08:03:13.955Z,22.23
2018-08-11T08:06:13.960Z,23.04
2018-08-11T08:09:13.876Z,23.89
2018-08-11T08:12:13.868Z,22.41
2018-08-11T08:15:13.808Z,23.75
2018-08-11T08:18:13.792Z,23.92
2018-08-11T08:21:13.756Z,23.23
2018-08-11T08:24:13.721Z,23.58
2018-08-11T08:27:13.678Z,24.73
2018-08-11T08:30:13.658Z,24.34
2018-08-11T08:33:13.621Z,22.90
2018-08-11T08:36:13.601Z,22.65
2018-08-11T08:39:13.570Z,24.71
2018-08-11T08:42:13.539Z,23.76
2018-08-11T08:45:13.493Z,23.47
2018-08-11T08:48:13.497Z,22.23
2018-08-11T08:51:13.445Z,23.42
2018-08-11T08:54:13.409Z,24.34
2018-08-11T08:57:13.380Z,25.30
2018-08-11T09:00:13.367Z,26.21
2018-08-11T09:03:13.309Z,22.52
2018-08-11T09:06:13.282Z,20.69
2018-08-11T09:09:13.259Z,24.07
2018-08-11T09:12:13.229Z,24.27
2018-08-11T09:15:13.182Z,22.67
2018-08-11T09:18:13.164Z,20.51
2018-08-11T09:21:13.122Z,24.32
2018-08-11T09:24:13.090Z,25.62
2018-08-11T09:27:13.049Z,22.84
2018-08-11T09:30:13.059Z,21.29
2018-08-11T09:33:12.986Z,23.64
2018-08-11T09:36:12.962Z,23.17
2018-08-11T09:39:12.914Z,21.23
2018-08-11T09:42:12.970Z,23.55
2018-08-11T09:45:12.905Z,22.50
2018-08-11T09:48:15.836Z,23.46
2018-08-11T09:51:12.800Z,25.00
2018-08-11T09:54:12.773Z,25.82
2018-08-11T09:57:13.754Z,26.52
2018-08-11T10:00:12.712Z,26.35
2018-08-11T10:03:12.724Z,26.46
2018-08-11T10:06:14.448Z,27.85
2018-08-11T10:09:12.649Z,24.94
2018-08-11T10:12:12.593Z,26.81
2018-08-11T10:15:12.572Z,25.84
2018-08-11T10:18:12.540Z,22.71
2018-08-11T10:21:12.597Z,24.87
2018-08-11T10:24:12.475Z,25.80
2018-08-11T10:27:12.442Z,26.65
2018-08-11T10:30:12.463Z,25.64
2018-08-11T10:33:12.411Z,23.05
2018-08-11T10:36:12.406Z,23.50
2018-08-11T10:39:12.342Z,22.39
2018-08-11T10:42:12.352Z,24.45
2018-08-11T10:45:12.305Z,25.79
2018-08-11T10:48:12.223Z,26.57
2018-08-11T10:51:12.234Z,26.52
2018-08-11T10:54:12.174Z,26.22
2018-08-11T10:57:12.134Z,23.43
2018-08-11T11:00:12.105Z,22.65
2018-08-11T11:03:12.118Z,25.02
2018-08-11T11:06:12.183Z,24.04
2018-08-11T11:09:12.045Z,25.35
2018-08-11T11:12:12.469Z,24.57
2018-08-11T11:15:11.950Z,26.44
2018-08-11T11:18:11.985Z,26.67
2018-08-11T11:21:11.874Z,27.62
2018-08-11T11:24:11.850Z,27.35
2018-08-11T11:27:11.833Z,28.10
2018-08-11T11:30:11.866Z,27.86
2018-08-11T11:33:11.749Z,27.80
2018-08-11T11:36:11.851Z,27.69
2018-08-11T11:39:11.723Z,25.57
2018-08-11T11:42:11.762Z,23.45
2018-08-11T11:45:11.655Z,22.16
2018-08-11T11:48:11.659Z,22.29
2018-08-11T11:51:11.630Z,25.15
2018-08-11T11:54:11.552Z,27.17
2018-08-11T11:57:11.741Z,26.72
2018-08-11T12:00:11.566Z,27.09
2018-08-11T12:03:11.442Z,26.49
2018-08-11T12:06:11.421Z,26.95
2018-08-11T12:09:11.375Z,26.22
2018-08-11T12:12:11.478Z,26.92
2018-08-11T12:15:11.341Z,26.47
2018-08-11T12:18:11.323Z,24.24
2018-08-11T12:21:11.327Z,24.14
2018-08-11T12:24:11.265Z,23.07
2018-08-11T12:27:11.242Z,23.42
2018-08-11T12:30:11.253Z,24.52
2018-08-11T12:33:11.209Z,24.26
2018-08-11T12:36:11.119Z,23.08
2018-08-11T12:39:11.168Z,22.43
2018-08-11T12:42:11.060Z,22.49
2018-08-11T12:45:11.009Z,23.77
2018-08-11T12:48:12.095Z,25.80
2018-08-11T12:51:10.943Z,27.31
2018-08-11T12:54:11.022Z,27.06
2018-08-11T12:57:10.877Z,27.31
2018-08-11T13:00:10.960Z,27.71
2018-08-11T13:03:10.820Z,25.54
2018-08-11T13:06:11.147Z,24.63
2018-08-11T13:09:10.774Z,25.13
2018-08-11T13:12:12.473Z,26.31
2018-08-11T13:15:10.693Z,26.77
2018-08-11T13:18:10.679Z,25.10
2018-08-11T13:21:10.715Z,24.13
2018-08-11T13:24:12.490Z,26.77
2018-08-11T13:27:10.589Z,27.82
2018-08-11T13:30:12.482Z,26.47
2018-08-11T13:33:10.518Z,26.92
2018-08-11T13:36:10.503Z,28.21
2018-08-11T13:39:10.469Z,28.96
2018-08-11T13:42:10.456Z,28.60
2018-08-11T13:45:10.405Z,28.03
2018-08-11T13:48:10.412Z,27.89
2018-08-11T13:51:11.395Z,27.46
2018-08-11T13:54:12.018Z,27.66
2018-08-11T13:57:10.417Z,27.79
2018-08-11T14:00:12.491Z,27.06
2018-08-11T14:03:10.277Z,27.39
2018-08-11T14:06:11.989Z,27.29
2018-08-11T14:09:10.351Z,27.13
2018-08-11T14:12:10.154Z,27.35
2018-08-11T14:15:10.116Z,27.19
2018-08-11T14:18:10.161Z,27.89
2018-08-11T14:21:10.064Z,27.14
2018-08-11T14:24:10.039Z,27.38
2018-08-11T14:27:10.034Z,26.83
2018-08-11T14:30:09.987Z,26.37
2018-08-11T14:33:09.960Z,26.76
2018-08-11T14:36:09.928Z,26.83
2018-08-11T14:39:09.907Z,27.54
2018-08-11T14:42:09.871Z,26.11
2018-08-11T14:45:09.988Z,26.17
2018-08-11T14:48:09.800Z,26.22
2018-08-11T14:51:09.764Z,26.22
2018-08-11T14:54:09.735Z,26.84
2018-08-11T14:57:09.917Z,26.15
2018-08-11T15:00:09.682Z,26.37
2018-08-11T15:03:09.629Z,26.22
2018-08-11T15:06:10.041Z,25.99
2018-08-11T15:09:09.577Z,26.69
2018-08-11T15:12:10.468Z,26.43
2018-08-11T15:15:09.498Z,25.80
2018-08-11T15:18:09.506Z,25.72
2018-08-11T15:21:09.454Z,26.15
2018-08-11T15:24:09.506Z,25.15
2018-08-11T15:27:09.375Z,25.57
2018-08-11T15:30:09.380Z,26.21
2018-08-11T15:33:09.378Z,26.43
2018-08-11T15:36:09.309Z,26.50
2018-08-11T15:39:09.247Z,25.91
2018-08-11T15:42:09.254Z,25.89
2018-08-11T15:45:09.189Z,25.97
2018-08-11T15:48:09.166Z,25.93
2018-08-11T15:51:09.126Z,25.62
2018-08-11T15:54:09.109Z,25.84
2018-08-11T15:57:09.087Z,25.94
2018-08-11T16:00:09.041Z,26.39
2018-08-11T16:03:09.058Z,26.91
2018-08-11T16:06:09.126Z,26.50
2018-08-11T16:09:08.931Z,25.74
2018-08-11T16:12:08.926Z,25.52
2018-08-11T16:15:08.874Z,24.60
2018-08-11T16:18:08.864Z,25.13
2018-08-11T16:21:08.799Z,25.47
2018-08-11T16:24:09.482Z,25.80
2018-08-11T16:27:08.730Z,25.17
2018-08-11T16:30:08.704Z,25.10
2018-08-11T16:33:08.733Z,25.91
2018-08-11T16:36:08.654Z,26.36
2018-08-11T16:39:08.610Z,26.44
2018-08-11T16:42:08.578Z,26.40
2018-08-11T16:45:08.533Z,26.44
2018-08-11T16:48:08.517Z,25.94
2018-08-11T16:51:08.463Z,26.50
2018-08-11T16:54:08.452Z,26.91
2018-08-11T16:57:15.053Z,27.10
2018-08-11T17:00:08.389Z,26.72
2018-08-11T17:03:08.338Z,25.94
2018-08-11T17:06:08.413Z,25.71
2018-08-11T17:09:08.271Z,25.65
2018-08-11T17:12:08.284Z,25.39
2018-08-11T17:15:08.213Z,25.10
2018-08-11T17:18:08.189Z,24.67
2018-08-11T17:21:08.157Z,24.38
2018-08-11T17:24:08.191Z,24.13
2018-08-11T17:27:08.285Z,24.45
2018-08-11T17:30:08.490Z,24.94
2018-08-11T17:33:08.056Z,25.15
2018-08-11T17:36:08.076Z,25.32
2018-08-11T17:39:07.957Z,25.32
2018-08-11T17:42:07.928Z,25.25
2018-08-11T17:45:07.922Z,25.24
2018-08-11T17:48:07.866Z,24.87
2018-08-11T17:51:07.825Z,25.38
2018-08-11T17:54:07.873Z,25.69
2018-08-11T17:57:07.859Z,25.24
2018-08-11T18:00:07.729Z,24.67
2018-08-11T18:03:07.706Z,24.52
2018-08-11T18:06:07.674Z,23.75
2018-08-11T18:09:07.637Z,23.97
2018-08-11T18:12:07.630Z,23.87
2018-08-11T18:15:07.566Z,22.78
2018-08-11T18:18:07.563Z,22.02
2018-08-11T18:21:07.595Z,21.64
2018-08-11T18:24:07.483Z,21.19
2018-08-11T18:27:07.414Z,20.96
2018-08-11T18:30:07.412Z,20.71
2018-08-11T18:33:07.382Z,20.61
2018-08-11T18:36:07.327Z,20.41
2018-08-11T18:39:07.298Z,20.18
2018-08-11T18:42:07.261Z,19.98
2018-08-11T18:45:07.251Z,19.78
2018-08-11T18:48:07.269Z,19.55
2018-08-11T18:51:07.231Z,19.39
2018-08-11T18:54:07.244Z,19.28
2018-08-11T18:57:08.089Z,18.84
2018-08-11T19:00:07.080Z,18.59
2018-08-11T19:03:07.012Z,18.21
2018-08-11T19:06:07.019Z,17.97
2018-08-11T19:09:06.948Z,17.97
2018-08-11T19:12:06.932Z,17.81
2018-08-11T19:15:06.917Z,17.84
2018-08-11T19:18:06.889Z,17.91
2018-08-11T19:21:07.802Z,17.97
2018-08-11T19:24:06.798Z,18.07
2018-08-11T19:27:08.462Z,17.87
2018-08-11T19:30:06.728Z,17.55
2018-08-11T19:33:07.705Z,17.25
2018-08-11T19:36:06.657Z,16.85
2018-08-11T19:39:06.610Z,16.53
2018-08-11T19:42:06.690Z,16.31
2018-08-11T19:45:06.598Z,16.11
2018-08-11T19:48:06.559Z,16.03
2018-08-11T19:51:06.485Z,15.99
2018-08-11T19:54:06.478Z,15.81
2018-08-11T19:57:06.973Z,15.59
2018-08-11T20:00:06.439Z,15.38
2018-08-11T20:03:06.354Z,15.39
2018-08-11T20:06:06.349Z,15.31
2018-08-11T20:09:06.348Z,15.36
2018-08-11T20:12:06.276Z,15.12
2018-08-11T20:15:06.217Z,15.08
2018-08-11T20:18:06.232Z,15.13
2018-08-11T20:21:06.142Z,15.21
2018-08-11T20:24:06.149Z,15.21
2018-08-11T20:27:06.097Z,15.28
2018-08-11T20:30:06.074Z,15.06
2018-08-11T20:33:06.020Z,15.03
2018-08-11T20:36:05.997Z,15.06
2018-08-11T20:39:05.955Z,15.06
2018-08-11T20:42:05.918Z,14.86
2018-08-11T20:45:05.914Z,14.88
2018-08-11T20:48:05.855Z,14.88
2018-08-11T20:51:05.826Z,14.68
2018-08-11T20:54:05.832Z,14.75
2018-08-11T20:57:05.955Z,14.81
2018-08-11T21:00:05.723Z,14.67
2018-08-11T21:03:05.676Z,14.65
2018-08-11T21:06:05.701Z,14.62
2018-08-11T21:09:05.613Z,14.49
2018-08-11T21:12:05.600Z,14.52
2018-08-11T21:15:05.557Z,14.32
2018-08-11T21:18:05.519Z,14.35
2018-08-11T21:21:05.495Z,14.28
2018-08-11T21:24:05.455Z,14.25
2018-08-11T21:27:05.424Z,14.25
2018-08-11T21:30:05.428Z,14.60
2018-08-11T21:33:05.349Z,14.75
2018-08-11T21:36:05.317Z,14.75
2018-08-11T21:39:05.295Z,14.81
2018-08-11T21:42:05.259Z,14.93
2018-08-11T21:45:05.207Z,14.90
2018-08-11T21:48:05.182Z,14.60
2018-08-11T21:51:05.144Z,14.49
2018-08-11T21:54:05.124Z,14.37
2018-08-11T21:57:05.071Z,14.17
2018-08-11T22:00:05.052Z,14.09
2018-08-11T22:03:05.004Z,13.89
2018-08-11T22:06:04.997Z,13.81
2018-08-11T22:09:04.952Z,13.81
2018-08-11T22:12:04.945Z,13.79
2018-08-11T22:15:04.890Z,13.91
2018-08-11T22:18:04.863Z,13.62
2018-08-11T22:21:04.824Z,13.59
2018-08-11T22:24:04.819Z,13.43
2018-08-11T22:27:04.746Z,13.47
2018-08-11T22:30:04.753Z,13.41
2018-08-11T22:33:04.678Z,13.27
2018-08-11T22:36:04.747Z,13.24
2018-08-11T22:39:04.622Z,13.04
2018-08-11T22:42:04.581Z,12.89
2018-08-11T22:45:04.535Z,12.77
2018-08-11T22:48:04.520Z,12.79
2018-08-11T22:51:04.501Z,12.78
2018-08-11T22:54:04.454Z,12.95
2018-08-11T22:57:04.406Z,13.04
2018-08-11T23:00:04.383Z,13.15
2018-08-11T23:03:04.370Z,13.17
2018-08-11T23:06:04.305Z,13.25
2018-08-11T23:09:04.261Z,13.17
2018-08-11T23:12:04.238Z,13.18
2018-08-11T23:15:04.210Z,13.20
2018-08-11T23:18:04.175Z,13.09
2018-08-11T23:21:04.149Z,13.12
2018-08-11T23:24:04.138Z,13.03
2018-08-11T23:27:05.161Z,12.87
2018-08-11T23:30:04.105Z,12.78
2018-08-11T23:33:04.013Z,12.97
2018-08-11T23:36:03.989Z,12.87
2018-08-11T23:39:03.943Z,12.70
2018-08-11T23:42:03.907Z,12.66
2018-08-11T23:45:03.878Z,12.64
2018-08-11T23:48:03.850Z,12.79
2018-08-11T23:51:03.809Z,12.82
2018-08-11T23:54:03.788Z,12.79
2018-08-11T23:57:03.821Z,12.64
